ンジャメナ の空港の天気 - METARとTAF

ンジャメナ国際空港 ( FTTJ / NDJ ) - チャド ンジャメナ
飛行場実況気象(Metar)
観測時間01/23 00:00 WAT (01/22 23:00 UTC)
風向・風速北 4m/s
視程6000m
天気現象
なし
気温20℃
湿度19%
気圧1015hPa
METARFTTJ 222300Z 01008KT 6000 NSC 20/M04 Q1015 NOSIG
過去の天気等 Google飛行場航空写真 Wunderground天気予報

過去48時間のMETAR

飛行場予報(TAF)
発表時間: 1/23 00:00 WAT (1/22 23:00 UTC)
予報対象時間: 23日1時 WAT ~ 24日7時 WAT
風向・風速北 6m/s
視程4000m
天気現象風塵
なし
23日17時 WAT ~ 23日21時 WAT に一時的に
視程2000m
TAF FTTJ 222300Z 2300/2406 01012KT 4000 DU NSC
TEMPO 2316/2320 2000